createdAt,value
2023-03-25T00:01:25.643Z,2.78
2023-03-25T00:03:54.344Z,2.75
2023-03-25T00:06:22.984Z,1.60
2023-03-25T00:08:51.957Z,0.95
2023-03-25T00:11:20.681Z,1.23
2023-03-25T00:13:49.445Z,1.50
2023-03-25T00:16:20.032Z,5.35
2023-03-25T00:18:49.902Z,3.50
2023-03-25T00:21:19.796Z,4.32
2023-03-25T00:23:48.740Z,4.00
2023-03-25T00:26:17.845Z,1.13
2023-03-25T00:28:46.822Z,1.27
2023-03-25T00:31:16.624Z,1.38
2023-03-25T00:33:46.983Z,3.08
2023-03-25T00:36:18.038Z,3.90
2023-03-25T00:38:51.115Z,2.70
2023-03-25T00:41:23.024Z,1.90
2023-03-25T00:43:53.688Z,2.22
2023-03-25T00:46:23.804Z,5.70
2023-03-25T00:48:53.870Z,4.82
2023-03-25T00:51:23.619Z,4.15
2023-03-25T00:53:54.109Z,3.33
2023-03-25T00:56:23.562Z,2.25
2023-03-25T00:58:52.084Z,3.88
2023-03-25T01:01:27.052Z,5.82
2023-03-25T01:04:01.221Z,4.90
2023-03-25T01:06:34.857Z,1.45
2023-03-25T01:09:06.005Z,2.80
2023-03-25T01:11:38.713Z,2.55
2023-03-25T01:14:09.587Z,7.47
2023-03-25T01:16:38.965Z,5.30
2023-03-25T01:19:09.027Z,2.08
2023-03-25T01:21:37.651Z,4.00
2023-03-25T01:24:08.030Z,2.35
2023-03-25T01:26:38.493Z,2.10
2023-03-25T01:29:07.518Z,2.33
2023-03-25T01:31:36.141Z,1.70
2023-03-25T01:34:05.473Z,1.73
2023-03-25T01:36:36.105Z,3.58
2023-03-25T01:39:05.707Z,2.20
2023-03-25T01:41:48.494Z,2.13
2023-03-25T01:44:57.150Z,3.55
2023-03-25T01:47:27.345Z,3.38
2023-03-25T01:49:56.240Z,1.63
2023-03-25T01:52:29.819Z,4.88
2023-03-25T01:55:00.765Z,3.13
2023-03-25T01:57:31.494Z,3.78
2023-03-25T02:00:00.441Z,1.17
2023-03-25T02:02:34.984Z,7.70
2023-03-25T02:05:10.524Z,4.13
2023-03-25T02:07:46.724Z,1.55
2023-03-25T02:10:16.840Z,3.58
2023-03-25T02:12:47.151Z,6.15
2023-03-25T02:15:19.032Z,3.42
2023-03-25T02:18:04.146Z,1.10
2023-03-25T02:21:18.864Z,1.05
2023-03-25T02:24:16.501Z,2.95
2023-03-25T02:27:14.459Z,1.33
2023-03-25T02:29:59.438Z,1.80
2023-03-25T02:32:45.667Z,2.97
2023-03-25T02:35:32.934Z,2.35
2023-03-25T02:38:24.733Z,1.95
2023-03-25T02:40:58.592Z,1.52
2023-03-25T02:43:33.756Z,2.35
2023-03-25T02:46:08.815Z,2.05
2023-03-25T02:48:43.738Z,5.22
2023-03-25T02:51:17.539Z,3.70
2023-03-25T02:53:51.138Z,2.33
2023-03-25T02:56:25.515Z,1.83
2023-03-25T02:58:56.386Z,2.13
2023-03-25T03:01:26.888Z,2.42
2023-03-25T03:03:57.457Z,2.80
2023-03-25T03:06:26.687Z,2.80
2023-03-25T03:09:09.253Z,2.67
2023-03-25T03:11:48.372Z,5.53
2023-03-25T03:14:32.327Z,4.60
2023-03-25T03:17:08.957Z,6.13
2023-03-25T03:19:46.183Z,2.25
2023-03-25T03:22:25.856Z,2.45
2023-03-25T03:25:02.919Z,3.35
2023-03-25T03:27:34.306Z,1.52
2023-03-25T03:30:08.897Z,2.92
2023-03-25T03:32:45.826Z,3.83
2023-03-25T03:35:20.094Z,4.32
2023-03-25T03:37:53.168Z,3.03
2023-03-25T03:40:25.894Z,2.55
2023-03-25T03:42:57.735Z,3.22
2023-03-25T03:45:32.145Z,3.17
2023-03-25T03:48:07.423Z,4.05
2023-03-25T03:50:41.075Z,3.00
2023-03-25T03:53:16.643Z,2.55
2023-03-25T03:55:52.314Z,1.60
2023-03-25T03:58:25.838Z,1.55
2023-03-25T04:01:00.707Z,3.90
2023-03-25T04:03:38.667Z,3.75
2023-03-25T04:06:18.041Z,2.30
2023-03-25T04:08:58.768Z,3.92
2023-03-25T04:11:34.029Z,2.75
2023-03-25T04:14:04.665Z,2.47
2023-03-25T04:16:36.034Z,3.42
2023-03-25T04:19:05.432Z,2.90
2023-03-25T04:21:34.294Z,3.63
2023-03-25T04:24:02.861Z,3.90
2023-03-25T04:26:34.062Z,5.10
2023-03-25T04:29:03.767Z,2.22
2023-03-25T04:31:32.609Z,3.42
2023-03-25T04:34:02.212Z,2.38
2023-03-25T04:36:33.603Z,1.98
2023-03-25T04:39:02.187Z,5.05
2023-03-25T04:41:33.813Z,2.15
2023-03-25T04:44:02.466Z,3.15
2023-03-25T04:46:31.114Z,4.70
2023-03-25T04:49:00.493Z,4.28
2023-03-25T04:51:30.297Z,3.10
2023-03-25T04:53:58.890Z,1.33
2023-03-25T04:56:27.849Z,3.80
2023-03-25T04:58:57.914Z,4.22
2023-03-25T05:01:30.747Z,3.38
2023-03-25T05:04:05.880Z,2.30
2023-03-25T05:06:35.936Z,1.48
2023-03-25T05:09:06.192Z,2.65
2023-03-25T05:11:37.001Z,1.35
2023-03-25T05:14:07.453Z,4.38
2023-03-25T05:16:36.249Z,0.95
2023-03-25T05:19:06.712Z,4.28
2023-03-25T05:21:37.486Z,2.22
2023-03-25T05:24:10.262Z,1.63
2023-03-25T05:26:40.663Z,1.73
2023-03-25T05:29:13.889Z,3.55
2023-03-25T05:31:44.813Z,2.97
2023-03-25T05:34:17.215Z,2.03
2023-03-25T05:36:46.460Z,0.90
2023-03-25T05:39:15.459Z,2.65
2023-03-25T05:41:46.096Z,3.33
2023-03-25T05:44:19.119Z,2.47
2023-03-25T05:46:47.703Z,1.73
2023-03-25T05:49:16.544Z,2.92
2023-03-25T05:51:45.206Z,2.15
2023-03-25T05:54:13.834Z,2.20
2023-03-25T05:56:43.804Z,2.20
2023-03-25T05:59:14.430Z,2.53
2023-03-25T06:01:45.752Z,2.22
2023-03-25T06:04:16.857Z,2.70
2023-03-25T06:06:45.668Z,1.80
2023-03-25T06:09:14.512Z,3.80
2023-03-25T06:11:43.122Z,5.53
2023-03-25T06:14:11.726Z,5.03
2023-03-25T06:16:40.333Z,5.25
2023-03-25T06:19:10.244Z,4.10
2023-03-25T06:21:39.351Z,3.60
2023-03-25T06:24:08.913Z,2.45
2023-03-25T06:26:37.467Z,3.97
2023-03-25T06:29:06.142Z,5.88
2023-03-25T06:31:34.820Z,3.35
2023-03-25T06:34:03.852Z,5.40
2023-03-25T06:36:34.778Z,5.57
2023-03-25T06:39:05.178Z,3.30
2023-03-25T06:41:35.829Z,5.35
2023-03-25T06:44:14.326Z,6.05
2023-03-25T06:46:48.480Z,2.35
2023-03-25T06:49:32.010Z,2.60
2023-03-25T06:52:02.944Z,3.67
2023-03-25T06:54:31.557Z,3.33
2023-03-25T06:57:00.251Z,7.15
2023-03-25T06:59:28.944Z,0.95
2023-03-25T07:01:57.653Z,4.68
2023-03-25T07:04:26.448Z,2.35
2023-03-25T07:06:57.269Z,2.22
2023-03-25T07:09:27.965Z,7.03
2023-03-25T07:11:56.550Z,5.10
2023-03-25T07:14:25.247Z,3.88
2023-03-25T07:16:53.933Z,4.43
2023-03-25T07:19:22.527Z,2.83
2023-03-25T07:21:51.105Z,3.05
2023-03-25T07:24:19.594Z,3.60
2023-03-25T07:26:49.649Z,5.18
2023-03-25T07:29:20.771Z,1.75
2023-03-25T07:31:49.353Z,3.58
2023-03-25T07:34:18.109Z,5.50
2023-03-25T07:36:46.751Z,5.78
2023-03-25T07:39:15.543Z,2.97
2023-03-25T07:41:44.256Z,4.93
2023-03-25T07:44:25.184Z,2.40
2023-03-25T07:46:54.692Z,3.88
2023-03-25T07:49:23.491Z,2.58
2023-03-25T07:51:52.167Z,2.35
2023-03-25T07:54:22.371Z,2.28
2023-03-25T07:56:51.053Z,2.22
2023-03-25T07:59:19.933Z,1.88
2023-03-25T08:01:49.967Z,0.68
2023-03-25T08:04:18.530Z,0.60
2023-03-25T08:06:47.610Z,0.98
2023-03-25T08:09:16.185Z,1.38
2023-03-25T08:11:44.783Z,0.50
2023-03-25T08:14:13.409Z,1.58
2023-03-25T08:16:42.122Z,1.13
2023-03-25T08:19:12.048Z,2.67
2023-03-25T08:21:40.635Z,0.30
2023-03-25T08:24:11.318Z,1.90
2023-03-25T08:26:39.956Z,0.85
2023-03-25T08:29:10.165Z,0.60
2023-03-25T08:31:40.489Z,1.90
2023-03-25T08:34:09.240Z,1.33
2023-03-25T08:36:39.628Z,3.55
2023-03-25T08:39:11.691Z,0.70
2023-03-25T08:41:40.934Z,4.05
2023-03-25T08:44:09.542Z,2.55
2023-03-25T08:46:38.488Z,2.08
2023-03-25T08:49:07.477Z,1.17
2023-03-25T08:51:36.123Z,3.08
2023-03-25T08:54:06.372Z,1.50
2023-03-25T08:56:35.086Z,3.03
2023-03-25T08:59:03.726Z,1.45
2023-03-25T09:01:33.069Z,2.95
2023-03-25T09:04:01.756Z,3.17
2023-03-25T09:06:30.536Z,1.63
2023-03-25T09:09:19.019Z,3.13
2023-03-25T09:11:47.685Z,1.85
2023-03-25T09:14:16.354Z,3.30
2023-03-25T09:16:44.993Z,4.15
2023-03-25T09:19:13.526Z,3.15
2023-03-25T09:21:42.170Z,4.10
2023-03-25T09:24:12.666Z,3.90
2023-03-25T09:26:42.915Z,2.97
2023-03-25T09:29:11.479Z,4.50
2023-03-25T09:31:40.142Z,4.80
2023-03-25T09:34:08.780Z,3.88
2023-03-25T09:36:45.726Z,3.92
2023-03-25T09:39:14.415Z,4.82
2023-03-25T09:41:55.813Z,5.30
2023-03-25T09:44:30.389Z,4.57
2023-03-25T09:47:01.762Z,5.55
2023-03-25T09:49:39.004Z,5.43
2023-03-25T09:52:15.326Z,4.13
2023-03-25T09:54:49.634Z,5.57
2023-03-25T09:57:24.151Z,5.05
2023-03-25T09:59:54.125Z,5.50
2023-03-25T10:02:34.440Z,5.10
2023-03-25T10:05:18.471Z,5.03
2023-03-25T10:08:01.406Z,4.35
2023-03-25T10:10:35.919Z,6.47
2023-03-25T10:13:13.204Z,5.97
2023-03-25T10:15:48.924Z,5.68
2023-03-25T10:18:45.480Z,10.15
2023-03-25T10:21:19.002Z,5.38
2023-03-25T10:23:55.761Z,7.10
2023-03-25T10:26:29.706Z,5.07
2023-03-25T10:29:04.041Z,5.65
2023-03-25T10:31:36.993Z,6.60
2023-03-25T10:34:08.583Z,5.15
2023-03-25T10:36:43.809Z,4.45
2023-03-25T10:39:18.918Z,8.82
2023-03-25T10:41:52.948Z,6.28
2023-03-25T10:44:26.563Z,4.97
2023-03-25T10:47:00.097Z,5.28
2023-03-25T10:49:32.398Z,3.42
2023-03-25T10:52:02.502Z,5.30
2023-03-25T10:54:36.338Z,5.18
2023-03-25T10:57:08.884Z,2.25
2023-03-25T10:59:45.253Z,3.92
2023-03-25T11:02:19.033Z,4.85
2023-03-25T11:04:51.116Z,4.43
2023-03-25T11:07:23.753Z,2.58
2023-03-25T11:09:52.697Z,4.72
2023-03-25T11:12:33.289Z,4.55
2023-03-25T11:15:17.130Z,4.10
2023-03-25T11:17:48.555Z,5.00
2023-03-25T11:20:22.843Z,4.78
2023-03-25T11:22:54.645Z,4.97
2023-03-25T11:25:27.636Z,3.78
2023-03-25T11:27:59.219Z,4.28
2023-03-25T11:30:29.610Z,3.22
2023-03-25T11:33:00.179Z,2.13
2023-03-25T11:35:31.556Z,3.97
2023-03-25T11:38:02.668Z,4.93
2023-03-25T11:40:32.918Z,4.28
2023-03-25T11:43:02.692Z,3.55
2023-03-25T11:45:37.772Z,2.15
2023-03-25T11:48:12.913Z,4.60
2023-03-25T11:50:47.666Z,3.55
2023-03-25T11:53:18.097Z,3.35
2023-03-25T11:55:49.419Z,2.08
2023-03-25T11:58:21.514Z,11.48
2023-03-25T12:00:53.569Z,3.28
2023-03-25T12:03:27.500Z,3.00
2023-03-25T12:06:01.734Z,3.72
2023-03-25T12:08:31.488Z,3.75
2023-03-25T12:11:06.787Z,3.83
2023-03-25T12:13:47.629Z,3.80
2023-03-25T12:16:28.639Z,3.80
2023-03-25T12:19:11.852Z,2.03
2023-03-25T12:22:06.521Z,3.97
2023-03-25T12:25:01.750Z,5.22
2023-03-25T12:27:43.301Z,3.88
2023-03-25T12:30:26.426Z,2.90
2023-03-25T12:33:03.959Z,5.13
2023-03-25T12:35:41.871Z,4.07
2023-03-25T12:38:28.502Z,3.50
2023-03-25T12:41:16.301Z,4.03
2023-03-25T12:43:58.520Z,3.20
2023-03-25T12:47:00.524Z,5.00
2023-03-25T12:49:50.839Z,5.25
2023-03-25T12:52:27.850Z,6.43
2023-03-25T12:55:10.952Z,4.35
2023-03-25T12:57:52.658Z,6.65
2023-03-25T13:00:33.898Z,3.15
2023-03-25T13:03:26.286Z,3.28
2023-03-25T13:06:01.586Z,7.60
2023-03-25T13:08:35.531Z,3.17
2023-03-25T13:11:08.402Z,4.22
2023-03-25T13:13:39.511Z,6.20
2023-03-25T13:16:11.968Z,3.75
2023-03-25T13:18:46.155Z,5.93
2023-03-25T13:21:21.717Z,5.65
2023-03-25T13:23:56.425Z,3.58
2023-03-25T13:26:29.369Z,3.60
2023-03-25T13:29:02.235Z,5.55
2023-03-25T13:31:35.516Z,2.53
2023-03-25T13:34:16.493Z,3.70
2023-03-25T13:36:53.187Z,4.13
2023-03-25T13:39:27.278Z,3.55
2023-03-25T13:42:04.219Z,2.58
2023-03-25T13:44:37.050Z,5.60
2023-03-25T13:47:15.136Z,2.75
2023-03-25T13:49:50.107Z,3.22
2023-03-25T13:52:20.518Z,3.95
2023-03-25T13:54:53.287Z,7.07
2023-03-25T13:57:50.471Z,2.42
2023-03-25T14:00:46.871Z,3.70
2023-03-25T14:03:50.636Z,6.03
2023-03-25T14:07:05.418Z,5.93
2023-03-25T14:10:04.026Z,3.90
2023-03-25T14:12:37.024Z,5.88
2023-03-25T14:15:12.878Z,4.82
2023-03-25T14:17:44.855Z,4.75
2023-03-25T14:20:24.325Z,4.45
2023-03-25T14:22:57.701Z,4.22
2023-03-25T14:25:37.206Z,2.17
2023-03-25T14:28:07.838Z,4.50
2023-03-25T14:30:36.619Z,4.50
2023-03-25T14:33:06.201Z,3.75
2023-03-25T14:35:51.985Z,4.30
2023-03-25T14:38:48.977Z,4.45
2023-03-25T14:41:47.630Z,3.85
2023-03-25T14:44:20.484Z,4.15
2023-03-25T14:46:49.209Z,2.95
2023-03-25T14:49:23.031Z,6.72
2023-03-25T14:51:55.620Z,7.03
2023-03-25T14:54:30.846Z,5.30
2023-03-25T14:57:07.849Z,5.90
2023-03-25T14:59:40.165Z,4.53
2023-03-25T15:02:17.429Z,3.60
2023-03-25T15:04:47.688Z,2.72
2023-03-25T15:07:20.037Z,3.35
2023-03-25T15:09:52.752Z,3.83
2023-03-25T15:12:26.211Z,12.52
2023-03-25T15:14:57.297Z,6.25
2023-03-25T15:17:44.480Z,3.55
2023-03-25T15:20:28.902Z,3.35
2023-03-25T15:23:33.670Z,7.50
2023-03-25T15:26:04.997Z,5.10
2023-03-25T15:28:54.203Z,6.80
2023-03-25T15:31:40.417Z,4.22
2023-03-25T15:34:31.258Z,5.18
2023-03-25T15:37:11.999Z,8.07
2023-03-25T15:39:55.846Z,5.60
2023-03-25T15:42:39.966Z,5.15
2023-03-25T15:45:39.138Z,8.18
2023-03-25T15:48:45.672Z,3.58
2023-03-25T15:51:34.670Z,4.13
2023-03-25T15:54:27.024Z,6.47
2023-03-25T15:56:59.299Z,4.43
2023-03-25T15:59:33.431Z,6.93
2023-03-25T16:02:05.232Z,6.38
2023-03-25T16:04:39.874Z,4.18
2023-03-25T16:07:10.941Z,5.43
2023-03-25T16:09:44.800Z,6.65
2023-03-25T16:12:19.819Z,6.97
2023-03-25T16:14:49.251Z,6.97
2023-03-25T16:17:21.226Z,9.85
2023-03-25T16:19:54.330Z,3.88
2023-03-25T16:22:28.546Z,6.25
2023-03-25T16:25:00.554Z,5.88
2023-03-25T16:27:32.781Z,5.57
2023-03-25T16:30:01.383Z,5.30
2023-03-25T16:32:36.020Z,4.97
2023-03-25T16:35:06.408Z,3.97
2023-03-25T16:37:35.078Z,2.95
2023-03-25T16:40:07.007Z,4.72
2023-03-25T16:42:37.168Z,4.18
2023-03-25T16:45:09.151Z,3.08
2023-03-25T16:47:39.192Z,4.97
2023-03-25T16:50:14.565Z,5.97
2023-03-25T16:52:43.339Z,3.72
2023-03-25T16:55:29.420Z,4.65
2023-03-25T16:58:01.030Z,5.28
2023-03-25T17:00:40.997Z,9.05
2023-03-25T17:03:17.574Z,3.17
2023-03-25T17:06:01.013Z,5.63
2023-03-25T17:08:30.795Z,5.38
2023-03-25T17:11:01.345Z,7.38
2023-03-25T17:13:33.046Z,4.40
2023-03-25T17:16:02.034Z,5.18
2023-03-25T17:18:33.399Z,7.60
2023-03-25T17:21:02.455Z,3.40
2023-03-25T17:23:36.462Z,3.83
2023-03-25T17:26:08.263Z,3.55
2023-03-25T17:28:39.245Z,3.92
2023-03-25T17:31:29.813Z,5.28
2023-03-25T17:34:07.345Z,3.58
2023-03-25T17:36:38.020Z,6.88
2023-03-25T17:39:14.159Z,7.90
2023-03-25T17:41:42.847Z,6.75
2023-03-25T17:44:16.602Z,4.63
2023-03-25T17:46:45.612Z,3.92
2023-03-25T17:49:18.852Z,4.68
2023-03-25T17:51:47.627Z,2.65
2023-03-25T17:54:16.359Z,4.32
2023-03-25T17:56:46.792Z,6.78
2023-03-25T17:59:18.995Z,7.13
2023-03-25T18:01:50.165Z,6.40
2023-03-25T18:04:22.134Z,4.78
2023-03-25T18:06:51.466Z,5.97
2023-03-25T18:09:22.162Z,6.97
2023-03-25T18:11:53.638Z,7.05
2023-03-25T18:14:22.683Z,4.80
2023-03-25T18:16:51.848Z,4.95
2023-03-25T18:19:24.031Z,3.45
2023-03-25T18:21:53.130Z,6.82
2023-03-25T18:24:22.655Z,4.10
2023-03-25T18:26:51.443Z,3.10
2023-03-25T18:29:21.887Z,4.75
2023-03-25T18:31:53.252Z,4.75
2023-03-25T18:34:25.855Z,7.75
2023-03-25T18:36:54.989Z,5.60
2023-03-25T18:39:25.431Z,6.68
2023-03-25T18:41:54.071Z,9.13
2023-03-25T18:44:22.656Z,4.90
2023-03-25T18:46:51.206Z,5.85
2023-03-25T18:49:20.964Z,6.40
2023-03-25T18:51:51.775Z,3.72
2023-03-25T18:54:20.365Z,8.27
2023-03-25T18:56:49.015Z,6.10
2023-03-25T18:59:19.726Z,6.60
2023-03-25T19:01:48.466Z,6.18
2023-03-25T19:04:18.154Z,8.18
2023-03-25T19:06:46.710Z,4.53
2023-03-25T19:09:19.322Z,3.53
2023-03-25T19:11:48.189Z,7.85
2023-03-25T19:14:16.776Z,4.93
2023-03-25T19:16:57.113Z,3.78
2023-03-25T19:19:32.060Z,9.02
2023-03-25T19:22:00.841Z,10.80
2023-03-25T19:24:30.825Z,6.18
2023-03-25T19:27:00.456Z,8.55
2023-03-25T19:29:29.376Z,4.60
2023-03-25T19:31:58.121Z,6.05
2023-03-25T19:34:26.675Z,9.55
2023-03-25T19:37:02.390Z,5.72
2023-03-25T19:39:32.491Z,6.95
2023-03-25T19:42:01.259Z,3.88
2023-03-25T19:44:30.112Z,7.95
2023-03-25T19:46:58.791Z,8.07
2023-03-25T19:49:39.358Z,5.05
2023-03-25T19:52:09.118Z,7.05
2023-03-25T19:54:39.123Z,7.53
2023-03-25T19:57:09.495Z,8.10
2023-03-25T19:59:38.307Z,7.10
2023-03-25T20:02:07.158Z,6.50
2023-03-25T20:04:36.106Z,7.22
2023-03-25T20:07:05.029Z,7.90
2023-03-25T20:09:33.674Z,5.10
2023-03-25T20:12:03.851Z,3.58
2023-03-25T20:14:32.410Z,4.70
2023-03-25T20:17:01.063Z,8.68
2023-03-25T20:19:29.641Z,7.35
2023-03-25T20:21:58.176Z,4.43
2023-03-25T20:24:26.969Z,5.13
2023-03-25T20:26:55.576Z,7.55
2023-03-25T20:29:25.618Z,6.85
2023-03-25T20:31:54.215Z,5.63
2023-03-25T20:34:22.739Z,10.00
2023-03-25T20:36:51.280Z,5.68
2023-03-25T20:39:20.009Z,6.53
2023-03-25T20:41:48.673Z,5.95
2023-03-25T20:44:17.445Z,9.65
2023-03-25T20:46:47.589Z,9.93
2023-03-25T20:49:17.291Z,7.38
2023-03-25T20:51:46.417Z,9.88
2023-03-25T20:54:16.117Z,9.15
2023-03-25T20:56:45.933Z,5.57
2023-03-25T20:59:16.794Z,8.02
2023-03-25T21:01:50.413Z,7.97
2023-03-25T21:04:19.468Z,9.70
2023-03-25T21:06:48.324Z,10.90
2023-03-25T21:09:18.336Z,7.32
2023-03-25T21:11:48.706Z,9.55
2023-03-25T21:14:18.744Z,8.40
2023-03-25T21:16:49.121Z,6.68
2023-03-25T21:19:18.127Z,7.85
2023-03-25T21:21:46.634Z,8.32
2023-03-25T21:24:16.728Z,6.68
2023-03-25T21:26:45.327Z,10.52
2023-03-25T21:29:13.915Z,8.43
2023-03-25T21:31:42.607Z,12.32
2023-03-25T21:34:16.090Z,6.47
2023-03-25T21:36:44.680Z,9.50
2023-03-25T21:39:13.419Z,7.03
2023-03-25T21:41:42.095Z,9.63
2023-03-25T21:44:12.632Z,11.07
2023-03-25T21:46:42.296Z,6.18
2023-03-25T21:49:13.905Z,7.38
2023-03-25T21:51:44.300Z,12.82
2023-03-25T21:54:14.414Z,9.90
2023-03-25T21:56:42.972Z,9.82
2023-03-25T21:59:11.551Z,13.65
2023-03-25T22:01:41.894Z,7.95
2023-03-25T22:04:11.925Z,9.18
2023-03-25T22:06:41.013Z,9.93
2023-03-25T22:09:09.509Z,10.98
2023-03-25T22:11:38.461Z,9.57
2023-03-25T22:14:08.044Z,9.15
2023-03-25T22:16:37.294Z,8.60
2023-03-25T22:19:06.698Z,10.13
2023-03-25T22:21:38.088Z,6.63
2023-03-25T22:24:08.369Z,12.75
2023-03-25T22:26:39.101Z,11.43
2023-03-25T22:29:09.836Z,11.48
2023-03-25T22:31:40.388Z,9.02
2023-03-25T22:34:15.594Z,11.52
2023-03-25T22:36:50.253Z,9.20
2023-03-25T22:39:20.949Z,10.95
2023-03-25T22:41:49.548Z,7.70
2023-03-25T22:44:18.616Z,14.75
2023-03-25T22:46:47.871Z,9.70
2023-03-25T22:49:17.146Z,8.57
2023-03-25T22:51:47.153Z,7.53
2023-03-25T22:54:16.161Z,9.82
2023-03-25T22:56:45.362Z,9.75
2023-03-25T22:59:15.691Z,10.90
2023-03-25T23:01:44.417Z,9.07
2023-03-25T23:04:13.629Z,8.65
2023-03-25T23:06:42.781Z,10.55
2023-03-25T23:09:33.890Z,9.13
2023-03-25T23:12:02.493Z,12.93
2023-03-25T23:14:31.230Z,13.52
2023-03-25T23:16:59.957Z,11.38
2023-03-25T23:19:28.494Z,7.85
2023-03-25T23:21:57.282Z,8.63
2023-03-25T23:24:27.755Z,14.90
2023-03-25T23:26:56.836Z,9.23
2023-03-25T23:29:25.491Z,9.30
2023-03-25T23:31:54.072Z,7.65
2023-03-25T23:34:22.616Z,8.70
2023-03-25T23:36:51.264Z,10.85
2023-03-25T23:39:22.172Z,10.95
2023-03-25T23:41:52.459Z,8.13
2023-03-25T23:44:21.421Z,11.30
2023-03-25T23:46:51.122Z,9.70
2023-03-25T23:49:20.274Z,9.63
2023-03-25T23:51:49.003Z,9.32
2023-03-25T23:54:18.116Z,9.68
2023-03-25T23:56:46.765Z,13.57
2023-03-25T23:59:16.896Z,9.05
